sensor_id;sensor_type;location;lat;lon;timestamp;pressure;altitude;pressure_sealevel;temperature;humidity
39491;BME280;25175;50.140;18.990;2023-04-22T00:01:46;98399.75;;;8.69;47.14
39491;BME280;25175;50.140;18.990;2023-04-22T00:04:52;98390.28;;;8.68;47.17
39491;BME280;25175;50.140;18.990;2023-04-22T00:07:58;98389.28;;;8.69;47.15
39491;BME280;25175;50.140;18.990;2023-04-22T00:11:03;98387.50;;;8.69;47.14
39491;BME280;25175;50.140;18.990;2023-04-22T00:14:09;98397.53;;;8.66;47.12
39491;BME280;25175;50.140;18.990;2023-04-22T00:17:16;98394.31;;;8.64;47.59
39491;BME280;25175;50.140;18.990;2023-04-22T00:20:23;98392.47;;;8.58;47.49
39491;BME280;25175;50.140;18.990;2023-04-22T00:23:30;98393.03;;;8.53;47.55
39491;BME280;25175;50.140;18.990;2023-04-22T00:26:35;98384.59;;;8.51;47.69
39491;BME280;25175;50.140;18.990;2023-04-22T00:29:48;98379.56;;;8.50;47.99
39491;BME280;25175;50.140;18.990;2023-04-22T00:32:57;98382.78;;;8.52;47.94
39491;BME280;25175;50.140;18.990;2023-04-22T00:36:03;98381.78;;;8.53;47.79
39491;BME280;25175;50.140;18.990;2023-04-22T00:39:12;98382.19;;;8.50;48.01
39491;BME280;25175;50.140;18.990;2023-04-22T00:42:23;98379.34;;;8.45;48.55
39491;BME280;25175;50.140;18.990;2023-04-22T00:45:30;98382.34;;;8.42;48.56
39491;BME280;25175;50.140;18.990;2023-04-22T00:49:04;98386.38;;;8.38;48.69
39491;BME280;25175;50.140;18.990;2023-04-22T00:52:11;98395.00;;;8.38;48.66
39491;BME280;25175;50.140;18.990;2023-04-22T00:55:16;98386.56;;;8.36;48.65
39491;BME280;25175;50.140;18.990;2023-04-22T00:58:27;98394.59;;;8.35;48.50
39491;BME280;25175;50.140;18.990;2023-04-22T01:01:38;98388.13;;;8.31;48.69
39491;BME280;25175;50.140;18.990;2023-04-22T01:04:46;98389.31;;;8.28;48.52
39491;BME280;25175;50.140;18.990;2023-04-22T01:07:54;98395.75;;;8.26;48.80
39491;BME280;25175;50.140;18.990;2023-04-22T01:11:01;98394.53;;;8.22;49.11
39491;BME280;25175;50.140;18.990;2023-04-22T01:14:14;98394.50;;;8.15;48.92
39491;BME280;25175;50.140;18.990;2023-04-22T01:17:20;98367.88;;;7.92;48.99
39491;BME280;25175;50.140;18.990;2023-04-22T01:20:29;98391.22;;;8.00;49.24
39491;BME280;25175;50.140;18.990;2023-04-22T01:23:38;98393.41;;;7.97;49.17
39491;BME280;25175;50.140;18.990;2023-04-22T01:26:44;98392.19;;;7.93;49.12
39491;BME280;25175;50.140;18.990;2023-04-22T01:29:51;98396.19;;;7.89;49.15
39491;BME280;25175;50.140;18.990;2023-04-22T01:32:57;98401.97;;;7.84;49.13
39491;BME280;25175;50.140;18.990;2023-04-22T01:36:04;98400.56;;;7.82;49.16
39491;BME280;25175;50.140;18.990;2023-04-22T01:39:17;98217.31;;;6.70;49.22
39491;BME280;25175;50.140;18.990;2023-04-22T01:42:23;98397.50;;;7.72;49.46
39491;BME280;25175;50.140;18.990;2023-04-22T01:45:29;98404.09;;;7.68;49.75
39491;BME280;25175;50.140;18.990;2023-04-22T01:48:36;98401.63;;;7.60;50.24
39491;BME280;25175;50.140;18.990;2023-04-22T01:51:52;98396.56;;;7.52;50.44
39491;BME280;25175;50.140;18.990;2023-04-22T01:55:01;98396.75;;;7.50;50.73
39491;BME280;25175;50.140;18.990;2023-04-22T01:58:06;98402.53;;;7.46;50.80
39491;BME280;25175;50.140;18.990;2023-04-22T02:01:25;98397.25;;;7.39;50.85
39491;BME280;25175;50.140;18.990;2023-04-22T02:04:30;98394.84;;;7.38;50.86
39491;BME280;25175;50.140;18.990;2023-04-22T02:07:40;98385.16;;;7.32;51.02
39491;BME280;25175;50.140;18.990;2023-04-22T02:10:47;98393.75;;;7.26;51.21
39491;BME280;25175;50.140;18.990;2023-04-22T02:13:54;98386.22;;;7.16;51.65
39491;BME280;25175;50.140;18.990;2023-04-22T02:17:04;98385.91;;;7.05;51.86
39491;BME280;25175;50.140;18.990;2023-04-22T02:20:11;98395.47;;;6.98;52.05
39491;BME280;25175;50.140;18.990;2023-04-22T02:23:16;98392.69;;;6.99;52.04
39491;BME280;25175;50.140;18.990;2023-04-22T02:26:27;98387.28;;;7.01;51.98
39491;BME280;25175;50.140;18.990;2023-04-22T02:29:35;98383.19;;;6.92;51.82
39491;BME280;25175;50.140;18.990;2023-04-22T02:32:42;98391.50;;;6.81;51.97
39491;BME280;25175;50.140;18.990;2023-04-22T02:35:56;98369.63;;;6.61;52.52
39491;BME280;25175;50.140;18.990;2023-04-22T02:39:02;98387.72;;;6.62;52.59
39491;BME280;25175;50.140;18.990;2023-04-22T02:42:15;98384.31;;;6.62;52.74
39491;BME280;25175;50.140;18.990;2023-04-22T02:45:41;98386.53;;;6.65;52.54
39491;BME280;25175;50.140;18.990;2023-04-22T02:48:47;98393.34;;;6.66;52.34
39491;BME280;25175;50.140;18.990;2023-04-22T02:51:53;98373.31;;;6.66;52.37
39491;BME280;25175;50.140;18.990;2023-04-22T02:54:59;98376.09;;;6.65;52.36
39491;BME280;25175;50.140;18.990;2023-04-22T02:58:08;98361.69;;;6.48;52.31
39491;BME280;25175;50.140;18.990;2023-04-22T03:01:27;98382.72;;;6.46;52.40
39491;BME280;25175;50.140;18.990;2023-04-22T03:04:40;98376.63;;;6.39;52.67
39491;BME280;25175;50.140;18.990;2023-04-22T03:07:45;98378.81;;;6.36;52.62
39491;BME280;25175;50.140;18.990;2023-04-22T03:10:52;98361.66;;;6.27;52.87
39491;BME280;25175;50.140;18.990;2023-04-22T03:14:00;98389.22;;;6.36;52.64
39491;BME280;25175;50.140;18.990;2023-04-22T03:17:06;98387.34;;;6.30;52.47
39491;BME280;25175;50.140;18.990;2023-04-22T03:20:12;98389.31;;;6.28;52.43
39491;BME280;25175;50.140;18.990;2023-04-22T03:23:18;98394.53;;;6.28;52.25
39491;BME280;25175;50.140;18.990;2023-04-22T03:26:23;98388.16;;;6.30;52.36
39491;BME280;25175;50.140;18.990;2023-04-22T03:29:33;98397.41;;;6.33;52.10
39491;BME280;25175;50.140;18.990;2023-04-22T03:32:38;98391.22;;;6.34;51.89
39491;BME280;25175;50.140;18.990;2023-04-22T03:35:55;98404.00;;;6.29;52.06
39491;BME280;25175;50.140;18.990;2023-04-22T03:39:01;98378.75;;;6.15;52.21
39491;BME280;25175;50.140;18.990;2023-04-22T03:42:12;98401.66;;;6.19;52.23
39491;BME280;25175;50.140;18.990;2023-04-22T03:45:27;98407.41;;;6.15;52.67
39491;BME280;25175;50.140;18.990;2023-04-22T03:48:58;98398.16;;;6.12;52.55
39491;BME280;25175;50.140;18.990;2023-04-22T03:52:08;98393.50;;;6.08;52.74
39491;BME280;25175;50.140;18.990;2023-04-22T03:55:20;98406.53;;;6.08;52.87
39491;BME280;25175;50.140;18.990;2023-04-22T03:58:28;98406.88;;;6.05;52.75
39491;BME280;25175;50.140;18.990;2023-04-22T04:01:38;98386.69;;;5.92;53.10
39491;BME280;25175;50.140;18.990;2023-04-22T04:05:01;98401.06;;;6.03;53.28
39491;BME280;25175;50.140;18.990;2023-04-22T04:08:11;98405.81;;;5.99;53.28
39491;BME280;25175;50.140;18.990;2023-04-22T04:11:17;98395.56;;;5.98;53.34
39491;BME280;25175;50.140;18.990;2023-04-22T04:14:24;98394.75;;;5.97;53.64
39491;BME280;25175;50.140;18.990;2023-04-22T04:17:32;98402.56;;;5.97;53.78
39491;BME280;25175;50.140;18.990;2023-04-22T04:20:39;98406.16;;;5.96;53.79
39491;BME280;25175;50.140;18.990;2023-04-22T04:23:45;98399.53;;;5.94;54.23
39491;BME280;25175;50.140;18.990;2023-04-22T04:26:52;98401.50;;;5.92;54.34
39491;BME280;25175;50.140;18.990;2023-04-22T04:30:06;98403.72;;;5.95;54.37
39491;BME280;25175;50.140;18.990;2023-04-22T04:33:24;98398.34;;;5.96;54.23
39491;BME280;25175;50.140;18.990;2023-04-22T04:36:30;98400.59;;;5.99;54.53
39491;BME280;25175;50.140;18.990;2023-04-22T04:39:52;98410.31;;;6.05;54.60
39491;BME280;25175;50.140;18.990;2023-04-22T04:43:05;98403.53;;;6.11;54.61
39491;BME280;25175;50.140;18.990;2023-04-22T04:46:42;98413.88;;;6.19;54.87
39491;BME280;25175;50.140;18.990;2023-04-22T04:49:50;98414.31;;;6.22;54.97
39491;BME280;25175;50.140;18.990;2023-04-22T04:53:00;98418.72;;;6.22;55.01
39491;BME280;25175;50.140;18.990;2023-04-22T04:56:14;98415.66;;;6.18;55.46
39491;BME280;25175;50.140;18.990;2023-04-22T04:59:22;98423.13;;;6.21;55.61
39491;BME280;25175;50.140;18.990;2023-04-22T05:02:27;98427.00;;;6.25;55.46
39491;BME280;25175;50.140;18.990;2023-04-22T05:05:37;98414.22;;;6.30;55.43
39491;BME280;25175;50.140;18.990;2023-04-22T05:08:43;98421.50;;;6.35;55.46
39491;BME280;25175;50.140;18.990;2023-04-22T05:11:52;98424.53;;;6.38;54.96
39491;BME280;25175;50.140;18.990;2023-04-22T05:15:00;98418.16;;;6.41;54.99
39491;BME280;25175;50.140;18.990;2023-04-22T05:18:07;98417.34;;;6.40;54.95
39491;BME280;25175;50.140;18.990;2023-04-22T05:21:15;98431.97;;;6.41;54.96
39491;BME280;25175;50.140;18.990;2023-04-22T05:24:25;98402.44;;;6.34;55.00
39491;BME280;25175;50.140;18.990;2023-04-22T05:27:32;98428.66;;;6.47;55.56
39491;BME280;25175;50.140;18.990;2023-04-22T05:30:52;98413.25;;;6.52;55.50
39491;BME280;25175;50.140;18.990;2023-04-22T05:33:59;98424.16;;;6.56;55.52
39491;BME280;25175;50.140;18.990;2023-04-22T05:37:16;98431.03;;;6.63;55.89
39491;BME280;25175;50.140;18.990;2023-04-22T05:40:23;98419.69;;;6.71;56.10
39491;BME280;25175;50.140;18.990;2023-04-22T05:43:30;98415.38;;;6.78;56.10
39491;BME280;25175;50.140;18.990;2023-04-22T05:46:42;98421.44;;;6.85;56.14
39491;BME280;25175;50.140;18.990;2023-04-22T05:49:49;98417.34;;;6.97;56.01
39491;BME280;25175;50.140;18.990;2023-04-22T05:53:08;98426.03;;;7.04;56.13
39491;BME280;25175;50.140;18.990;2023-04-22T06:00:49;98422.44;;;7.26;56.41
39491;BME280;25175;50.140;18.990;2023-04-22T06:04:22;98423.53;;;7.38;55.78
39491;BME280;25175;50.140;18.990;2023-04-22T06:07:30;98333.22;;;6.88;55.87
39491;BME280;25175;50.140;18.990;2023-04-22T06:10:38;98425.53;;;7.57;55.69
39491;BME280;25175;50.140;18.990;2023-04-22T06:13:45;98432.41;;;7.64;55.84
39491;BME280;25175;50.140;18.990;2023-04-22T06:16:51;98430.88;;;7.76;56.01
39491;BME280;25175;50.140;18.990;2023-04-22T06:19:57;98425.13;;;7.87;55.91
39491;BME280;25175;50.140;18.990;2023-04-22T06:23:04;98420.31;;;7.91;55.78
39491;BME280;25175;50.140;18.990;2023-04-22T06:26:13;98423.66;;;8.12;55.85
39491;BME280;25175;50.140;18.990;2023-04-22T06:29:18;98432.16;;;8.21;54.07
39491;BME280;25175;50.140;18.990;2023-04-22T06:32:24;98429.34;;;8.29;54.20
39491;BME280;25175;50.140;18.990;2023-04-22T06:35:28;98427.78;;;8.41;54.59
39491;BME280;25175;50.140;18.990;2023-04-22T06:38:35;98415.13;;;8.44;54.70
39491;BME280;25175;50.140;18.990;2023-04-22T06:41:56;98430.13;;;8.70;54.72
39491;BME280;25175;50.140;18.990;2023-04-22T06:45:21;98429.78;;;8.86;53.94
39491;BME280;25175;50.140;18.990;2023-04-22T06:48:52;98428.19;;;9.04;54.34
39491;BME280;25175;50.140;18.990;2023-04-22T06:52:01;98428.63;;;9.21;53.00
39491;BME280;25175;50.140;18.990;2023-04-22T06:55:07;98414.75;;;9.27;52.95
39491;BME280;25175;50.140;18.990;2023-04-22T06:58:16;98419.34;;;9.51;51.34
39491;BME280;25175;50.140;18.990;2023-04-22T07:01:22;98426.22;;;9.65;50.50
39491;BME280;25175;50.140;18.990;2023-04-22T07:04:28;98430.41;;;9.79;51.10
39491;BME280;25175;50.140;18.990;2023-04-22T07:07:35;98423.38;;;9.92;50.90
39491;BME280;25175;50.140;18.990;2023-04-22T07:10:43;98425.75;;;10.07;51.04
39491;BME280;25175;50.140;18.990;2023-04-22T07:14:15;98422.47;;;10.24;51.24
39491;BME280;25175;50.140;18.990;2023-04-22T07:17:21;98427.84;;;10.42;51.95
39491;BME280;25175;50.140;18.990;2023-04-22T07:20:26;98423.34;;;10.56;51.00
39491;BME280;25175;50.140;18.990;2023-04-22T07:23:32;98424.47;;;10.73;51.38
39491;BME280;25175;50.140;18.990;2023-04-22T07:26:38;98427.44;;;10.89;49.61
39491;BME280;25175;50.140;18.990;2023-04-22T07:29:47;98418.53;;;10.97;47.63
39491;BME280;25175;50.140;18.990;2023-04-22T07:32:52;98429.28;;;11.20;47.23
39491;BME280;25175;50.140;18.990;2023-04-22T07:36:04;98383.88;;;11.13;47.61
39491;BME280;25175;50.140;18.990;2023-04-22T07:39:10;98424.94;;;11.56;47.49
39491;BME280;25175;50.140;18.990;2023-04-22T07:42:16;98425.19;;;11.73;47.22
39491;BME280;25175;50.140;18.990;2023-04-22T07:45:28;98419.38;;;11.89;46.64
39491;BME280;25175;50.140;18.990;2023-04-22T07:48:34;98420.22;;;12.07;47.85
39491;BME280;25175;50.140;18.990;2023-04-22T07:51:40;98422.06;;;12.25;48.07
39491;BME280;25175;50.140;18.990;2023-04-22T07:58:05;98418.81;;;12.59;47.29
39491;BME280;25175;50.140;18.990;2023-04-22T08:01:17;98414.16;;;12.72;46.54
39491;BME280;25175;50.140;18.990;2023-04-22T08:04:22;98420.63;;;12.88;45.99
39491;BME280;25175;50.140;18.990;2023-04-22T08:07:29;98420.03;;;13.04;45.17
39491;BME280;25175;50.140;18.990;2023-04-22T08:10:34;98404.13;;;13.10;44.75
39491;BME280;25175;50.140;18.990;2023-04-22T08:13:40;98420.34;;;13.37;43.94
39491;BME280;25175;50.140;18.990;2023-04-22T08:16:54;98416.59;;;13.56;44.17
39491;BME280;25175;50.140;18.990;2023-04-22T08:20:01;98416.69;;;13.72;43.29
39491;BME280;25175;50.140;18.990;2023-04-22T08:23:06;98423.91;;;13.88;42.82
39491;BME280;25175;50.140;18.990;2023-04-22T08:26:13;98399.50;;;13.93;42.05
39491;BME280;25175;50.140;18.990;2023-04-22T08:29:18;98423.44;;;14.26;39.97
39491;BME280;25175;50.140;18.990;2023-04-22T08:32:27;98414.91;;;14.47;39.92
39491;BME280;25175;50.140;18.990;2023-04-22T08:35:39;98409.91;;;14.62;40.03
39491;BME280;25175;50.140;18.990;2023-04-22T08:38:46;98396.69;;;14.73;39.32
39491;BME280;25175;50.140;18.990;2023-04-22T08:41:53;98398.19;;;14.97;38.59
39491;BME280;25175;50.140;18.990;2023-04-22T08:45:01;98412.56;;;15.18;38.86
39491;BME280;25175;50.140;18.990;2023-04-22T08:48:11;98400.38;;;15.33;37.60
39491;BME280;25175;50.140;18.990;2023-04-22T08:51:18;98397.50;;;15.51;36.38
39491;BME280;25175;50.140;18.990;2023-04-22T08:54:23;98400.16;;;15.68;37.69
39491;BME280;25175;50.140;18.990;2023-04-22T08:57:41;98403.66;;;15.89;36.07
39491;BME280;25175;50.140;18.990;2023-04-22T09:00:47;98398.66;;;16.09;35.81
39491;BME280;25175;50.140;18.990;2023-04-22T09:03:58;98401.44;;;16.19;34.45
39491;BME280;25175;50.140;18.990;2023-04-22T09:07:07;98396.81;;;16.31;34.83
39491;BME280;25175;50.140;18.990;2023-04-22T09:10:17;98396.50;;;16.49;32.78
39491;BME280;25175;50.140;18.990;2023-04-22T09:13:24;98387.69;;;16.65;33.40
39491;BME280;25175;50.140;18.990;2023-04-22T09:16:30;98388.41;;;16.82;31.72
39491;BME280;25175;50.140;18.990;2023-04-22T09:19:39;98381.59;;;16.91;30.85
39491;BME280;25175;50.140;18.990;2023-04-22T09:22:47;98388.59;;;17.02;32.76
39491;BME280;25175;50.140;18.990;2023-04-22T09:25:56;98388.69;;;17.12;32.14
39491;BME280;25175;50.140;18.990;2023-04-22T09:29:02;98387.97;;;17.22;30.68
39491;BME280;25175;50.140;18.990;2023-04-22T09:32:09;98385.16;;;17.33;30.29
39491;BME280;25175;50.140;18.990;2023-04-22T09:35:25;98376.78;;;17.46;30.87
39491;BME280;25175;50.140;18.990;2023-04-22T09:38:31;98376.88;;;17.56;30.62
39491;BME280;25175;50.140;18.990;2023-04-22T09:41:41;98371.59;;;17.66;31.34
39491;BME280;25175;50.140;18.990;2023-04-22T09:44:48;98319.72;;;17.39;31.79
39491;BME280;25175;50.140;18.990;2023-04-22T09:48:01;98335.44;;;17.55;31.38
39491;BME280;25175;50.140;18.990;2023-04-22T09:51:21;98363.00;;;17.91;30.29
39491;BME280;25175;50.140;18.990;2023-04-22T09:54:28;98353.75;;;17.98;30.22
39491;BME280;25175;50.140;18.990;2023-04-22T09:57:38;98358.63;;;18.06;30.53
39491;BME280;25175;50.140;18.990;2023-04-22T10:00:49;98348.81;;;18.17;30.79
39491;BME280;25175;50.140;18.990;2023-04-22T10:03:56;98353.38;;;18.31;30.52
39491;BME280;25175;50.140;18.990;2023-04-22T10:07:05;98356.91;;;18.42;31.04
39491;BME280;25175;50.140;18.990;2023-04-22T10:10:10;98331.66;;;18.44;31.01
39491;BME280;25175;50.140;18.990;2023-04-22T10:13:56;98354.28;;;18.62;28.31
39491;BME280;25175;50.140;18.990;2023-04-22T10:17:05;98327.97;;;18.55;26.62
39491;BME280;25175;50.140;18.990;2023-04-22T10:20:15;98346.06;;;18.68;26.34
39491;BME280;25175;50.140;18.990;2023-04-22T10:23:25;98336.44;;;18.52;26.68
39491;BME280;25175;50.140;18.990;2023-04-22T10:26:41;98338.09;;;18.73;27.66
39491;BME280;25175;50.140;18.990;2023-04-22T10:29:56;98281.72;;;18.51;27.82
39491;BME280;25175;50.140;18.990;2023-04-22T10:36:59;98325.91;;;19.07;26.18
39491;BME280;25175;50.140;18.990;2023-04-22T10:40:11;98322.19;;;19.18;27.51
39491;BME280;25175;50.140;18.990;2023-04-22T10:43:39;98307.03;;;19.09;26.65
39491;BME280;25175;50.140;18.990;2023-04-22T10:46:57;98325.34;;;19.40;27.08
39491;BME280;25175;50.140;18.990;2023-04-22T10:50:17;98055.59;;;17.88;25.71
39491;BME280;25175;50.140;18.990;2023-04-22T10:53:35;98325.38;;;19.50;25.36
39491;BME280;25175;50.140;18.990;2023-04-22T10:57:03;98312.84;;;19.61;25.55
39491;BME280;25175;50.140;18.990;2023-04-22T11:00:26;98316.81;;;19.73;26.28
39491;BME280;25175;50.140;18.990;2023-04-22T11:04:20;98304.53;;;19.87;25.43
39491;BME280;25175;50.140;18.990;2023-04-22T11:07:30;98309.53;;;19.99;24.58
39491;BME280;25175;50.140;18.990;2023-04-22T11:10:42;98293.78;;;20.02;24.94
39491;BME280;25175;50.140;18.990;2023-04-22T11:13:52;98294.81;;;20.11;25.14
39491;BME280;25175;50.140;18.990;2023-04-22T11:16:59;98291.06;;;20.22;25.52
39491;BME280;25175;50.140;18.990;2023-04-22T11:20:07;98299.56;;;20.24;24.63
39491;BME280;25175;50.140;18.990;2023-04-22T11:23:18;98281.47;;;20.21;26.19
39491;BME280;25175;50.140;18.990;2023-04-22T11:26:34;98284.66;;;20.23;25.25
39491;BME280;25175;50.140;18.990;2023-04-22T11:30:01;98277.72;;;20.27;25.13
39491;BME280;25175;50.140;18.990;2023-04-22T11:33:14;98280.91;;;20.29;24.44
39491;BME280;25175;50.140;18.990;2023-04-22T11:36:23;98281.19;;;20.23;24.13
39491;BME280;25175;50.140;18.990;2023-04-22T11:39:34;98264.69;;;20.16;25.06
39491;BME280;25175;50.140;18.990;2023-04-22T11:42:39;98272.38;;;20.27;25.34
39491;BME280;25175;50.140;18.990;2023-04-22T11:45:54;98271.91;;;20.20;24.18
39491;BME280;25175;50.140;18.990;2023-04-22T11:49:19;98269.47;;;20.24;24.15
39491;BME280;25175;50.140;18.990;2023-04-22T11:52:45;98254.22;;;20.34;23.63
39491;BME280;25175;50.140;18.990;2023-04-22T11:55:54;98256.81;;;20.44;25.05
39491;BME280;25175;50.140;18.990;2023-04-22T11:59:00;98262.34;;;20.53;24.16
39491;BME280;25175;50.140;18.990;2023-04-22T12:02:16;98254.13;;;20.49;23.28
39491;BME280;25175;50.140;18.990;2023-04-22T12:05:39;98254.66;;;20.46;24.21
39491;BME280;25175;50.140;18.990;2023-04-22T12:08:54;98254.91;;;20.50;23.99
